createdAt,value
2018-12-06T00:00:45.199Z,11.60
2018-12-06T00:03:13.447Z,12.90
2018-12-06T00:05:41.644Z,13.70
2018-12-06T00:08:17.695Z,13.17
2018-12-06T00:10:46.002Z,12.23
2018-12-06T00:13:14.395Z,13.07
2018-12-06T00:15:42.721Z,17.53
2018-12-06T00:18:10.915Z,13.70
2018-12-06T00:20:39.283Z,12.83
2018-12-06T00:23:07.521Z,12.93
2018-12-06T00:25:35.769Z,12.80
2018-12-06T00:28:04.275Z,13.67
2018-12-06T00:30:40.675Z,12.90
2018-12-06T00:33:09.305Z,13.03
2018-12-06T00:35:37.703Z,11.97
2018-12-06T00:38:06.057Z,15.93
2018-12-06T00:40:34.348Z,14.33
2018-12-06T00:43:02.605Z,18.07
2018-12-06T00:45:30.896Z,14.67
2018-12-06T00:47:59.135Z,14.73
2018-12-06T00:50:27.444Z,13.30
2018-12-06T00:52:55.683Z,14.17
2018-12-06T00:55:23.907Z,16.37
2018-12-06T00:57:52.260Z,15.67
2018-12-06T01:00:20.487Z,13.27
2018-12-06T01:02:48.705Z,9.37
2018-12-06T01:05:16.979Z,15.93
2018-12-06T01:07:45.257Z,14.00
2018-12-06T01:10:13.551Z,11.23
2018-12-06T01:12:42.048Z,15.40
2018-12-06T01:15:10.398Z,13.50
2018-12-06T01:17:38.627Z,11.33
2018-12-06T01:20:08.193Z,14.17
2018-12-06T01:22:36.545Z,11.53
2018-12-06T01:25:05.807Z,12.33
2018-12-06T01:27:34.016Z,10.27
2018-12-06T01:30:02.259Z,11.97
2018-12-06T01:32:30.498Z,12.60
2018-12-06T01:34:58.710Z,11.23
2018-12-06T01:37:27.081Z,14.97
2018-12-06T01:39:55.345Z,16.47
2018-12-06T01:42:23.664Z,14.43
2018-12-06T01:44:51.900Z,13.27
2018-12-06T01:47:20.248Z,9.43
2018-12-06T01:49:48.500Z,11.50
2018-12-06T01:52:16.726Z,10.17
2018-12-06T01:54:44.957Z,16.87
2018-12-06T01:57:13.200Z,13.20
2018-12-06T01:59:41.465Z,13.93
2018-12-06T02:02:09.740Z,13.20
2018-12-06T02:04:38.106Z,15.37
2018-12-06T02:07:06.361Z,11.57
2018-12-06T02:09:34.659Z,12.17
2018-12-06T02:12:02.917Z,14.17
2018-12-06T02:14:31.229Z,11.63
2018-12-06T02:16:59.483Z,13.37
2018-12-06T02:19:28.283Z,11.43
2018-12-06T02:21:56.531Z,12.47
2018-12-06T02:24:24.842Z,11.00
2018-12-06T02:26:53.060Z,12.43
2018-12-06T02:29:21.280Z,12.67
2018-12-06T02:31:49.475Z,12.93
2018-12-06T02:34:17.789Z,11.20
2018-12-06T02:36:46.036Z,10.83
2018-12-06T02:39:14.315Z,16.97
2018-12-06T02:41:42.562Z,14.63
2018-12-06T02:44:10.986Z,14.97
2018-12-06T02:46:39.340Z,15.07
2018-12-06T02:49:07.584Z,11.83
2018-12-06T02:51:35.898Z,12.97
2018-12-06T02:54:04.136Z,13.63
2018-12-06T02:56:32.353Z,19.10
2018-12-06T02:59:00.726Z,12.50
2018-12-06T03:01:28.967Z,12.53
2018-12-06T03:03:57.237Z,12.23
2018-12-06T03:06:25.475Z,11.47
2018-12-06T03:08:53.708Z,12.53
2018-12-06T03:11:22.033Z,12.77
2018-12-06T03:13:50.262Z,12.43
2018-12-06T03:16:37.388Z,11.73
2018-12-06T03:19:05.693Z,14.80
2018-12-06T03:21:33.935Z,14.70
2018-12-06T03:24:02.216Z,11.67
2018-12-06T03:26:30.485Z,15.43
2018-12-06T03:28:58.720Z,13.13
2018-12-06T03:31:26.940Z,15.70
2018-12-06T03:33:55.153Z,12.20
2018-12-06T03:36:23.374Z,13.17
2018-12-06T03:38:51.619Z,14.37
2018-12-06T03:41:19.847Z,15.57
2018-12-06T03:43:48.075Z,15.20
2018-12-06T03:46:16.421Z,11.43
2018-12-06T03:48:44.709Z,14.23
2018-12-06T03:51:12.957Z,12.10
2018-12-06T03:53:41.323Z,15.07
2018-12-06T03:56:09.553Z,17.33
2018-12-06T03:58:37.790Z,12.03
2018-12-06T04:01:06.285Z,15.03
2018-12-06T04:03:34.567Z,16.47
2018-12-06T04:06:02.912Z,14.07
2018-12-06T04:08:31.101Z,12.80
2018-12-06T04:10:59.392Z,12.50
2018-12-06T04:13:27.646Z,14.97
2018-12-06T04:15:55.922Z,15.10
2018-12-06T04:18:25.186Z,14.70
2018-12-06T04:20:53.610Z,14.03
2018-12-06T04:23:22.079Z,14.83
2018-12-06T04:25:50.285Z,13.97
2018-12-06T04:28:18.536Z,14.27
2018-12-06T04:30:46.818Z,15.17
2018-12-06T04:33:15.020Z,15.57
2018-12-06T04:35:43.302Z,15.00
2018-12-06T04:38:11.550Z,13.57
2018-12-06T04:40:39.833Z,18.20
2018-12-06T04:43:08.082Z,14.67
2018-12-06T04:45:36.275Z,12.17
2018-12-06T04:48:04.584Z,14.97
2018-12-06T04:50:32.821Z,14.10
2018-12-06T04:53:01.119Z,17.33
2018-12-06T04:55:29.411Z,15.37
2018-12-06T04:57:57.665Z,19.97
2018-12-06T05:00:25.935Z,17.37
2018-12-06T05:02:54.354Z,14.27
2018-12-06T05:05:22.590Z,17.73
2018-12-06T05:07:50.824Z,15.80
2018-12-06T05:10:19.078Z,17.20
2018-12-06T05:12:47.348Z,25.47
2018-12-06T05:15:15.570Z,16.40
2018-12-06T05:17:43.893Z,14.97
2018-12-06T05:20:12.253Z,16.50
2018-12-06T05:25:33.028Z,19.60
2018-12-06T05:28:01.326Z,17.70
2018-12-06T05:30:29.621Z,14.83
2018-12-06T05:32:57.852Z,20.50
2018-12-06T05:35:26.053Z,22.03
2018-12-06T05:37:54.316Z,21.20
2018-12-06T05:40:22.655Z,17.90
2018-12-06T05:42:50.904Z,18.17
2018-12-06T05:45:19.197Z,21.87
2018-12-06T05:47:47.470Z,18.63
2018-12-06T05:50:15.937Z,26.63
2018-12-06T05:52:44.289Z,20.37
2018-12-06T05:55:12.556Z,19.53
2018-12-06T05:57:40.790Z,22.30
2018-12-06T06:00:09.316Z,23.37
2018-12-06T06:02:37.499Z,20.20
2018-12-06T06:05:07.019Z,17.20
2018-12-06T06:07:35.260Z,16.13
2018-12-06T06:10:03.680Z,20.80
2018-12-06T06:12:32.126Z,17.70
2018-12-06T06:15:00.374Z,17.87
2018-12-06T06:17:28.642Z,17.03
2018-12-06T06:19:57.072Z,23.23
2018-12-06T06:22:25.312Z,22.97
2018-12-06T06:24:53.517Z,17.97
2018-12-06T06:27:21.899Z,18.13
2018-12-06T06:29:50.160Z,16.30
2018-12-06T06:32:18.430Z,17.90
2018-12-06T06:34:46.700Z,21.87
2018-12-06T06:37:14.970Z,21.40
2018-12-06T06:39:43.542Z,19.37
2018-12-06T06:42:11.814Z,20.40
2018-12-06T06:44:40.050Z,20.50
2018-12-06T06:47:08.262Z,21.60
2018-12-06T06:49:36.552Z,22.67
2018-12-06T06:52:04.827Z,21.20
2018-12-06T06:54:33.199Z,20.17
2018-12-06T06:57:01.426Z,20.00
2018-12-06T06:59:29.688Z,25.20
2018-12-06T07:01:57.947Z,22.07
2018-12-06T07:04:26.233Z,21.97
2018-12-06T07:06:54.502Z,22.47
2018-12-06T07:09:22.734Z,21.17
2018-12-06T07:11:50.967Z,24.93
2018-12-06T07:14:19.352Z,23.63
2018-12-06T07:16:47.668Z,25.20
2018-12-06T07:19:16.230Z,23.80
2018-12-06T07:21:44.490Z,23.40
2018-12-06T07:24:15.147Z,22.50
2018-12-06T07:26:45.013Z,27.10
2018-12-06T07:29:13.539Z,22.17
2018-12-06T07:31:58.332Z,26.23
2018-12-06T07:34:26.575Z,25.60
2018-12-06T07:36:54.922Z,26.27
2018-12-06T07:39:23.167Z,30.67
2018-12-06T07:41:51.478Z,26.37
2018-12-06T07:44:19.748Z,26.67
2018-12-06T07:46:51.035Z,28.40
2018-12-06T07:49:19.329Z,28.83
2018-12-06T07:51:47.645Z,33.20
2018-12-06T07:54:15.873Z,27.30
2018-12-06T07:56:44.140Z,26.17
2018-12-06T07:59:12.462Z,29.83
2018-12-06T08:01:40.744Z,31.93
2018-12-06T08:04:09.023Z,29.33
2018-12-06T08:06:37.281Z,30.57
2018-12-06T08:09:08.490Z,32.40
2018-12-06T08:11:38.563Z,35.70
2018-12-06T08:14:07.090Z,35.27
2018-12-06T08:16:35.659Z,36.20
2018-12-06T08:19:03.951Z,36.20
2018-12-06T08:21:32.247Z,36.67
2018-12-06T08:24:00.500Z,35.27
2018-12-06T08:26:29.154Z,34.23
2018-12-06T08:28:57.652Z,35.13
2018-12-06T08:31:26.010Z,38.07
2018-12-06T08:33:54.990Z,38.23
2018-12-06T08:36:23.424Z,36.97
2018-12-06T08:38:55.514Z,41.33
2018-12-06T08:41:23.801Z,43.67
2018-12-06T08:43:53.014Z,39.70
2018-12-06T08:46:21.310Z,39.83
2018-12-06T08:48:49.636Z,42.67
2018-12-06T08:51:17.854Z,45.07
2018-12-06T08:53:46.247Z,41.93
2018-12-06T08:56:15.227Z,39.63
2018-12-06T08:58:43.521Z,37.70
2018-12-06T09:01:12.180Z,37.37
2018-12-06T09:03:40.428Z,40.63
2018-12-06T09:06:08.660Z,41.73
2018-12-06T09:08:37.015Z,43.13
2018-12-06T09:11:05.389Z,41.30
2018-12-06T09:13:33.645Z,43.23
2018-12-06T09:16:01.925Z,45.97
2018-12-06T09:18:30.283Z,41.40
2018-12-06T09:20:58.639Z,38.27
2018-12-06T09:23:27.043Z,38.67
2018-12-06T09:25:57.049Z,43.50
2018-12-06T09:28:25.298Z,43.67
2018-12-06T09:31:00.880Z,44.77
2018-12-06T09:33:24.037Z,41.47
2018-12-06T09:35:52.257Z,45.90
2018-12-06T09:38:20.510Z,45.80
2018-12-06T09:40:48.943Z,53.33
2018-12-06T09:43:17.330Z,46.57
2018-12-06T09:45:45.750Z,55.87
2018-12-06T09:48:14.005Z,52.87
2018-12-06T09:50:42.341Z,56.97
2018-12-06T09:53:10.902Z,57.97
2018-12-06T09:55:39.203Z,55.50
2018-12-06T09:58:07.467Z,54.43
2018-12-06T10:00:35.936Z,50.67
2018-12-06T10:03:04.283Z,50.50
2018-12-06T10:05:32.685Z,57.13
2018-12-06T10:08:02.131Z,57.47
2018-12-06T10:10:30.376Z,61.37
2018-12-06T10:13:00.285Z,55.17
2018-12-06T10:15:28.607Z,59.27
2018-12-06T10:17:57.615Z,59.00
2018-12-06T10:20:25.876Z,69.03
2018-12-06T10:22:54.820Z,73.27
2018-12-06T10:25:24.706Z,67.13
2018-12-06T10:27:53.790Z,64.00
2018-12-06T10:30:22.881Z,72.53
2018-12-06T10:32:51.144Z,67.63
2018-12-06T10:35:19.482Z,66.17
2018-12-06T10:37:47.798Z,63.70
2018-12-06T10:40:16.070Z,70.40
2018-12-06T10:42:44.391Z,68.90
2018-12-06T10:45:15.449Z,65.23
2018-12-06T10:47:43.675Z,67.43
2018-12-06T10:50:12.807Z,73.73
2018-12-06T10:52:41.991Z,64.30
2018-12-06T10:55:10.314Z,65.63
2018-12-06T10:57:39.467Z,63.00
2018-12-06T11:00:10.152Z,65.80
2018-12-06T11:02:43.838Z,65.40
2018-12-06T11:05:12.178Z,58.27
2018-12-06T11:07:40.952Z,64.10
2018-12-06T11:10:09.284Z,65.83
2018-12-06T11:12:37.709Z,61.20
2018-12-06T11:15:06.623Z,69.27
2018-12-06T11:17:47.514Z,64.93
2018-12-06T11:20:15.845Z,71.37
2018-12-06T11:22:44.132Z,65.00
2018-12-06T11:25:12.490Z,58.00
2018-12-06T11:27:40.816Z,58.97
2018-12-06T11:30:09.280Z,56.27
2018-12-06T11:32:37.837Z,55.73
2018-12-06T11:35:06.110Z,62.70
2018-12-06T11:37:34.351Z,57.17
2018-12-06T11:40:02.578Z,59.00
2018-12-06T11:42:31.697Z,54.47
2018-12-06T11:44:59.975Z,57.00
2018-12-06T11:47:28.223Z,45.77
2018-12-06T11:52:49.254Z,51.77
2018-12-06T11:55:17.693Z,48.97
2018-12-06T11:57:46.301Z,50.30
2018-12-06T12:00:14.741Z,51.53
2018-12-06T12:02:42.962Z,58.40
2018-12-06T12:05:11.273Z,54.10
2018-12-06T12:07:39.551Z,55.70
2018-12-06T12:10:08.315Z,54.30
2018-12-06T12:12:36.570Z,54.07
2018-12-06T12:17:58.093Z,62.17
2018-12-06T12:20:26.363Z,60.80
2018-12-06T12:22:54.639Z,56.30
2018-12-06T12:25:22.868Z,54.07
2018-12-06T12:27:52.605Z,58.17
2018-12-06T12:30:21.055Z,52.73
2018-12-06T12:32:49.364Z,53.70
2018-12-06T12:35:18.831Z,60.90
2018-12-06T12:37:47.312Z,69.87
2018-12-06T12:40:15.613Z,65.00
2018-12-06T12:42:43.880Z,64.67
2018-12-06T12:45:12.257Z,70.23
2018-12-06T12:47:40.552Z,65.00
2018-12-06T12:50:10.689Z,60.70
2018-12-06T12:52:38.998Z,63.40
2018-12-06T12:55:07.566Z,58.17
2018-12-06T12:57:35.903Z,67.70
2018-12-06T13:02:57.359Z,66.67
2018-12-06T13:05:25.654Z,60.23
2018-12-06T13:07:53.891Z,65.30
2018-12-06T13:10:22.127Z,62.03
2018-12-06T13:12:50.476Z,63.57
2018-12-06T13:15:18.729Z,70.67
2018-12-06T13:17:47.115Z,64.57
2018-12-06T13:20:15.395Z,58.87
2018-12-06T13:22:43.622Z,58.23
2018-12-06T13:28:05.043Z,56.00
2018-12-06T13:30:33.351Z,61.53
2018-12-06T13:33:01.672Z,63.07
2018-12-06T13:35:30.055Z,58.03
2018-12-06T13:37:58.263Z,57.43
2018-12-06T13:40:26.583Z,57.53
2018-12-06T13:42:54.815Z,60.27
2018-12-06T13:45:23.047Z,56.80
2018-12-06T13:47:51.314Z,60.27
2018-12-06T13:50:19.564Z,61.13
2018-12-06T13:52:47.774Z,61.63
2018-12-06T13:55:16.075Z,59.30
2018-12-06T13:57:44.499Z,60.20
2018-12-06T14:00:12.923Z,53.77
2018-12-06T14:02:41.215Z,59.90
2018-12-06T14:05:09.584Z,56.40
2018-12-06T14:07:37.876Z,59.10
2018-12-06T14:10:06.184Z,68.63
2018-12-06T14:12:34.474Z,64.80
2018-12-06T14:15:02.708Z,63.50
2018-12-06T14:17:31.740Z,61.13
2018-12-06T14:20:00.023Z,67.30
2018-12-06T14:22:28.270Z,75.03
2018-12-06T14:24:56.558Z,72.93
2018-12-06T14:27:24.785Z,75.90
2018-12-06T14:29:53.250Z,77.80
2018-12-06T14:32:22.102Z,84.10
2018-12-06T14:34:50.829Z,75.53
2018-12-06T14:37:19.266Z,74.87
2018-12-06T14:39:47.565Z,78.57
2018-12-06T14:42:15.804Z,78.50
2018-12-06T14:44:44.032Z,85.47
2018-12-06T14:47:12.366Z,84.20
2018-12-06T14:49:40.621Z,86.37
2018-12-06T14:52:08.861Z,88.97
2018-12-06T14:54:37.156Z,86.43
2018-12-06T14:57:05.443Z,78.07
2018-12-06T14:59:34.521Z,85.00
2018-12-06T15:02:03.053Z,84.53
2018-12-06T15:04:31.312Z,85.50
2018-12-06T15:06:59.613Z,86.63
2018-12-06T15:09:27.935Z,84.70
2018-12-06T15:11:56.637Z,86.43
2018-12-06T15:14:24.987Z,88.37
2018-12-06T15:16:53.512Z,84.00
2018-12-06T15:19:21.774Z,80.90
2018-12-06T15:21:50.047Z,83.10
2018-12-06T15:24:18.295Z,79.33
2018-12-06T15:26:46.539Z,85.50
2018-12-06T15:29:14.874Z,82.63
2018-12-06T15:31:43.377Z,81.53
2018-12-06T15:34:11.677Z,77.53
2018-12-06T15:36:40.841Z,85.03
2018-12-06T15:39:09.268Z,81.83
2018-12-06T15:41:38.751Z,77.03
2018-12-06T15:44:07.067Z,75.43
2018-12-06T15:46:35.362Z,81.77
2018-12-06T15:49:03.769Z,72.57
2018-12-06T15:51:32.040Z,68.83
2018-12-06T15:54:00.274Z,72.13
2018-12-06T15:56:28.648Z,66.93
2018-12-06T15:58:57.938Z,61.00
2018-12-06T16:01:26.306Z,62.77
2018-12-06T16:03:54.578Z,64.93
2018-12-06T16:06:22.919Z,65.90
2018-12-06T16:08:51.388Z,65.83
2018-12-06T16:11:19.632Z,59.50
2018-12-06T16:13:49.553Z,64.60
2018-12-06T16:16:17.834Z,52.40
2018-12-06T16:18:46.609Z,51.03
2018-12-06T16:21:15.152Z,58.10
2018-12-06T16:23:43.490Z,53.57
2018-12-06T16:26:11.892Z,52.07
2018-12-06T16:28:40.153Z,56.90
2018-12-06T16:31:08.533Z,54.53
2018-12-06T16:33:36.754Z,53.37
2018-12-06T16:36:05.752Z,53.43
2018-12-06T16:38:34.009Z,57.80
2018-12-06T16:41:02.707Z,57.33
2018-12-06T16:43:30.987Z,54.97
2018-12-06T16:45:59.234Z,53.77
2018-12-06T16:48:27.506Z,55.23
2018-12-06T16:50:55.942Z,47.17
2018-12-06T16:53:24.259Z,48.67
2018-12-06T16:55:52.575Z,42.83
2018-12-06T16:58:20.832Z,44.47
2018-12-06T17:00:49.145Z,40.77
2018-12-06T17:03:18.219Z,41.80
2018-12-06T17:05:46.569Z,37.77
2018-12-06T17:08:14.919Z,34.40
2018-12-06T17:10:43.235Z,39.00
2018-12-06T17:13:11.485Z,37.73
2018-12-06T17:15:39.768Z,41.23
2018-12-06T17:18:08.055Z,34.80
2018-12-06T17:20:36.329Z,36.30
2018-12-06T17:23:10.724Z,41.77
2018-12-06T17:25:38.982Z,37.47
2018-12-06T17:28:07.268Z,37.40
2018-12-06T17:30:35.722Z,34.40
2018-12-06T17:33:04.052Z,37.07
2018-12-06T17:35:32.386Z,34.70
2018-12-06T17:38:00.643Z,40.67
2018-12-06T17:40:29.031Z,36.07
2018-12-06T17:42:57.260Z,33.43
2018-12-06T17:45:25.659Z,37.77
2018-12-06T17:47:53.933Z,41.27
2018-12-06T17:50:22.378Z,39.23
2018-12-06T17:52:50.630Z,41.60
2018-12-06T17:55:18.864Z,36.40
2018-12-06T17:57:47.214Z,36.53
2018-12-06T18:00:15.453Z,37.33
2018-12-06T18:02:44.020Z,37.60
2018-12-06T18:05:12.348Z,41.10
2018-12-06T18:07:40.731Z,37.50
2018-12-06T18:10:12.786Z,36.77
2018-12-06T18:12:41.109Z,39.03
2018-12-06T18:15:10.164Z,41.90
2018-12-06T18:18:09.317Z,48.93
2018-12-06T18:20:37.672Z,35.97
2018-12-06T18:23:06.108Z,40.40
2018-12-06T18:25:34.477Z,38.97
2018-12-06T18:28:02.793Z,37.33
2018-12-06T18:30:31.021Z,37.67
2018-12-06T18:32:59.279Z,38.13
2018-12-06T18:35:27.594Z,40.57
2018-12-06T18:37:56.714Z,39.93
2018-12-06T18:40:25.108Z,36.97
2018-12-06T18:42:53.481Z,42.37
2018-12-06T18:45:24.778Z,44.37
2018-12-06T18:50:01.876Z,44.63
2018-12-06T18:52:30.234Z,47.77
2018-12-06T18:54:58.509Z,46.70
2018-12-06T18:57:26.862Z,47.93
2018-12-06T18:59:55.135Z,45.77
2018-12-06T19:02:23.397Z,50.23
2018-12-06T19:04:51.695Z,44.17
2018-12-06T19:07:19.986Z,45.47
2018-12-06T19:09:48.454Z,48.90
2018-12-06T19:12:17.179Z,46.87
2018-12-06T19:14:45.493Z,46.87
2018-12-06T19:17:13.793Z,45.57
2018-12-06T19:19:42.150Z,48.53
2018-12-06T19:22:12.273Z,45.33
2018-12-06T19:24:40.503Z,45.73
2018-12-06T19:27:27.144Z,50.63
2018-12-06T19:29:55.512Z,43.27
2018-12-06T19:32:23.791Z,44.00
2018-12-06T19:34:52.394Z,45.10
2018-12-06T19:37:20.673Z,42.07
2018-12-06T19:39:49.063Z,44.73
2018-12-06T19:42:17.362Z,39.70
2018-12-06T19:44:45.644Z,39.43
2018-12-06T19:47:13.930Z,39.57
2018-12-06T19:49:42.286Z,39.50
2018-12-06T19:52:10.598Z,37.80
2018-12-06T19:54:38.934Z,36.33
2018-12-06T19:57:07.237Z,34.97
2018-12-06T19:59:35.510Z,35.37
2018-12-06T20:02:03.967Z,39.93
2018-12-06T20:04:32.233Z,32.40
2018-12-06T20:07:00.614Z,34.27
2018-12-06T20:09:28.895Z,40.47
2018-12-06T20:11:57.223Z,36.73
2018-12-06T20:14:25.547Z,37.80
2018-12-06T20:16:53.857Z,38.90
2018-12-06T20:19:22.223Z,36.50
2018-12-06T20:21:50.469Z,40.93
2018-12-06T20:24:18.850Z,40.07
2018-12-06T20:29:31.044Z,42.87
2018-12-06T20:31:59.463Z,40.00
2018-12-06T20:34:32.219Z,40.07
2018-12-06T20:37:00.647Z,43.20
2018-12-06T20:39:28.957Z,41.93
2018-12-06T20:41:57.305Z,43.93
2018-12-06T20:44:26.431Z,42.87
2018-12-06T20:46:54.886Z,42.80
2018-12-06T20:49:23.257Z,40.83
2018-12-06T20:51:51.575Z,41.13
2018-12-06T20:54:19.925Z,41.87
2018-12-06T20:56:48.211Z,41.83
2018-12-06T20:59:16.514Z,42.93
2018-12-06T21:01:44.839Z,47.03
2018-12-06T21:04:13.214Z,46.60
2018-12-06T21:06:41.806Z,43.20
2018-12-06T21:09:10.074Z,43.27
2018-12-06T21:11:38.380Z,43.73
2018-12-06T21:14:06.763Z,41.67
2018-12-06T21:16:35.088Z,44.17
2018-12-06T21:19:03.488Z,42.57
2018-12-06T21:21:31.801Z,45.83
2018-12-06T21:24:00.783Z,43.30
2018-12-06T21:26:29.068Z,44.17
2018-12-06T21:28:57.421Z,46.10
2018-12-06T21:31:25.777Z,46.10
2018-12-06T21:33:54.074Z,45.43
2018-12-06T21:36:22.433Z,45.20
2018-12-06T21:38:50.785Z,45.73
2018-12-06T21:41:19.186Z,47.53
2018-12-06T21:43:47.463Z,45.87
2018-12-06T21:46:15.731Z,45.30
2018-12-06T21:48:44.194Z,56.77
2018-12-06T21:51:12.522Z,51.73
2018-12-06T21:53:40.813Z,50.07
2018-12-06T21:56:09.064Z,53.00
2018-12-06T21:58:37.337Z,50.80
2018-12-06T22:01:05.580Z,52.37
2018-12-06T22:03:33.918Z,56.73
2018-12-06T22:06:02.304Z,52.20
2018-12-06T22:08:30.622Z,55.83
2018-12-06T22:10:58.918Z,52.63
2018-12-06T22:13:27.201Z,57.17
2018-12-06T22:15:55.498Z,54.40
2018-12-06T22:18:23.852Z,56.23
2018-12-06T22:20:52.163Z,53.80
2018-12-06T22:23:20.440Z,57.50
2018-12-06T22:25:48.731Z,53.67
2018-12-06T22:28:16.989Z,53.27
2018-12-06T22:30:45.264Z,56.47
2018-12-06T22:33:13.768Z,56.50
2018-12-06T22:35:42.053Z,55.43
2018-12-06T22:38:10.331Z,55.37
2018-12-06T22:40:38.562Z,57.00
2018-12-06T22:43:07.023Z,54.97
2018-12-06T22:46:06.227Z,57.10
2018-12-06T22:48:34.586Z,56.30
2018-12-06T22:51:02.850Z,55.43
2018-12-06T22:53:31.199Z,55.77
2018-12-06T22:55:59.467Z,55.00
2018-12-06T22:58:27.771Z,53.30
2018-12-06T23:00:59.116Z,56.90
2018-12-06T23:03:27.872Z,53.67
2018-12-06T23:05:56.249Z,56.90
2018-12-06T23:08:24.474Z,54.80
2018-12-06T23:10:52.801Z,55.20
2018-12-06T23:13:21.169Z,56.33
2018-12-06T23:15:49.559Z,55.07
2018-12-06T23:18:17.882Z,53.17
2018-12-06T23:20:46.129Z,54.07
2018-12-06T23:23:14.623Z,56.37
2018-12-06T23:25:42.919Z,51.83
2018-12-06T23:28:12.975Z,54.23
2018-12-06T23:30:41.389Z,58.57
2018-12-06T23:33:09.761Z,55.43
2018-12-06T23:35:38.094Z,53.10
2018-12-06T23:38:06.368Z,51.33
2018-12-06T23:40:34.719Z,48.70
2018-12-06T23:43:03.239Z,55.80
2018-12-06T23:45:31.523Z,50.53
2018-12-06T23:47:59.892Z,52.23
2018-12-06T23:50:28.079Z,49.10
2018-12-06T23:52:56.294Z,56.60
2018-12-06T23:55:24.518Z,46.33
2018-12-06T23:57:52.758Z,44.47
